sensor_id;sensor_type;location;lat;lon;timestamp;P1;durP1;ratioP1;P2;durP2;ratioP2
22470;SDS011;11402;51.374;6.594;2022-12-24T00:00:31;26.50;;;4.50;;
22470;SDS011;11402;51.374;6.594;2022-12-24T00:02:57;30.08;;;4.72;;
22470;SDS011;11402;51.374;6.594;2022-12-24T00:05:23;26.15;;;4.53;;
22470;SDS011;11402;51.374;6.594;2022-12-24T00:07:48;32.95;;;4.85;;
22470;SDS011;11402;51.374;6.594;2022-12-24T00:10:14;33.08;;;5.65;;
22470;SDS011;11402;51.374;6.594;2022-12-24T00:12:40;21.75;;;4.18;;
22470;SDS011;11402;51.374;6.594;2022-12-24T00:15:05;33.63;;;4.97;;
22470;SDS011;11402;51.374;6.594;2022-12-24T00:17:32;30.15;;;5.63;;
22470;SDS011;11402;51.374;6.594;2022-12-24T00:19:57;27.67;;;4.65;;
22470;SDS011;11402;51.374;6.594;2022-12-24T00:22:23;19.13;;;5.05;;
22470;SDS011;11402;51.374;6.594;2022-12-24T00:24:49;37.28;;;5.28;;
22470;SDS011;11402;51.374;6.594;2022-12-24T00:27:14;28.08;;;4.88;;
22470;SDS011;11402;51.374;6.594;2022-12-24T00:29:40;24.92;;;4.13;;
22470;SDS011;11402;51.374;6.594;2022-12-24T00:32:06;27.38;;;5.05;;
22470;SDS011;11402;51.374;6.594;2022-12-24T00:34:34;27.85;;;4.82;;
22470;SDS011;11402;51.374;6.594;2022-12-24T00:37:00;32.53;;;6.30;;
22470;SDS011;11402;51.374;6.594;2022-12-24T00:39:26;36.38;;;5.25;;
22470;SDS011;11402;51.374;6.594;2022-12-24T00:41:51;26.85;;;4.88;;
22470;SDS011;11402;51.374;6.594;2022-12-24T00:44:17;27.70;;;5.88;;
22470;SDS011;11402;51.374;6.594;2022-12-24T00:46:42;32.28;;;6.05;;
22470;SDS011;11402;51.374;6.594;2022-12-24T00:49:08;30.85;;;4.22;;
22470;SDS011;11402;51.374;6.594;2022-12-24T00:51:36;28.73;;;4.90;;
22470;SDS011;11402;51.374;6.594;2022-12-24T00:54:02;30.55;;;5.05;;
22470;SDS011;11402;51.374;6.594;2022-12-24T00:56:28;30.95;;;5.35;;
22470;SDS011;11402;51.374;6.594;2022-12-24T00:58:53;34.65;;;6.32;;
22470;SDS011;11402;51.374;6.594;2022-12-24T01:01:20;41.20;;;6.03;;
22470;SDS011;11402;51.374;6.594;2022-12-24T01:03:47;35.95;;;5.43;;
22470;SDS011;11402;51.374;6.594;2022-12-24T01:06:13;30.55;;;5.28;;
22470;SDS011;11402;51.374;6.594;2022-12-24T01:08:41;35.90;;;6.03;;
22470;SDS011;11402;51.374;6.594;2022-12-24T01:11:08;32.72;;;5.47;;
22470;SDS011;11402;51.374;6.594;2022-12-24T01:13:34;38.50;;;6.47;;
22470;SDS011;11402;51.374;6.594;2022-12-24T01:16:00;37.53;;;6.18;;
22470;SDS011;11402;51.374;6.594;2022-12-24T01:18:26;30.60;;;5.40;;
22470;SDS011;11402;51.374;6.594;2022-12-24T01:20:56;39.38;;;5.63;;
22470;SDS011;11402;51.374;6.594;2022-12-24T01:23:23;34.47;;;5.53;;
22470;SDS011;11402;51.374;6.594;2022-12-24T01:25:48;30.25;;;5.18;;
22470;SDS011;11402;51.374;6.594;2022-12-24T01:28:14;29.00;;;5.38;;
22470;SDS011;11402;51.374;6.594;2022-12-24T01:30:40;30.58;;;5.55;;
22470;SDS011;11402;51.374;6.594;2022-12-24T01:33:06;32.53;;;4.90;;
22470;SDS011;11402;51.374;6.594;2022-12-24T01:35:31;27.15;;;5.50;;
22470;SDS011;11402;51.374;6.594;2022-12-24T01:37:57;35.97;;;5.82;;
22470;SDS011;11402;51.374;6.594;2022-12-24T01:40:24;36.60;;;5.65;;
22470;SDS011;11402;51.374;6.594;2022-12-24T01:43:19;35.30;;;5.65;;
22470;SDS011;11402;51.374;6.594;2022-12-24T01:45:52;39.17;;;6.20;;
22470;SDS011;11402;51.374;6.594;2022-12-24T01:48:39;34.00;;;5.50;;
22470;SDS011;11402;51.374;6.594;2022-12-24T01:51:15;35.22;;;5.78;;
22470;SDS011;11402;51.374;6.594;2022-12-24T01:53:50;37.88;;;6.30;;
22470;SDS011;11402;51.374;6.594;2022-12-24T01:56:20;40.83;;;6.15;;
22470;SDS011;11402;51.374;6.594;2022-12-24T01:58:47;40.75;;;6.40;;
22470;SDS011;11402;51.374;6.594;2022-12-24T02:01:18;34.00;;;6.63;;
22470;SDS011;11402;51.374;6.594;2022-12-24T02:03:44;32.63;;;5.35;;
22470;SDS011;11402;51.374;6.594;2022-12-24T02:06:09;47.53;;;6.82;;
22470;SDS011;11402;51.374;6.594;2022-12-24T02:08:39;41.50;;;5.60;;
22470;SDS011;11402;51.374;6.594;2022-12-24T02:11:15;36.45;;;6.97;;
22470;SDS011;11402;51.374;6.594;2022-12-24T02:13:47;34.15;;;6.00;;
22470;SDS011;11402;51.374;6.594;2022-12-24T02:21:58;36.53;;;5.97;;
22470;SDS011;11402;51.374;6.594;2022-12-24T02:27:05;36.72;;;6.00;;
22470;SDS011;11402;51.374;6.594;2022-12-24T02:29:45;35.75;;;4.97;;
22470;SDS011;11402;51.374;6.594;2022-12-24T02:32:34;38.65;;;5.97;;
22470;SDS011;11402;51.374;6.594;2022-12-24T02:37:37;33.15;;;5.70;;
22470;SDS011;11402;51.374;6.594;2022-12-24T02:40:16;38.90;;;6.03;;
22470;SDS011;11402;51.374;6.594;2022-12-24T02:42:49;41.00;;;6.22;;
22470;SDS011;11402;51.374;6.594;2022-12-24T02:45:21;33.40;;;6.07;;
22470;SDS011;11402;51.374;6.594;2022-12-24T02:47:51;44.03;;;6.15;;
22470;SDS011;11402;51.374;6.594;2022-12-24T02:50:18;34.25;;;5.88;;
22470;SDS011;11402;51.374;6.594;2022-12-24T02:52:44;30.10;;;6.10;;
22470;SDS011;11402;51.374;6.594;2022-12-24T02:55:12;37.20;;;5.85;;
22470;SDS011;11402;51.374;6.594;2022-12-24T02:58:00;41.85;;;6.43;;
22470;SDS011;11402;51.374;6.594;2022-12-24T03:00:52;31.05;;;5.15;;
22470;SDS011;11402;51.374;6.594;2022-12-24T03:06:57;38.92;;;5.72;;
22470;SDS011;11402;51.374;6.594;2022-12-24T03:09:42;37.28;;;5.88;;
22470;SDS011;11402;51.374;6.594;2022-12-24T03:15:37;32.47;;;5.65;;
22470;SDS011;11402;51.374;6.594;2022-12-24T03:18:04;34.53;;;5.28;;
22470;SDS011;11402;51.374;6.594;2022-12-24T03:20:36;34.80;;;5.80;;
22470;SDS011;11402;51.374;6.594;2022-12-24T03:23:04;26.98;;;4.18;;
22470;SDS011;11402;51.374;6.594;2022-12-24T03:25:31;32.63;;;5.22;;
22470;SDS011;11402;51.374;6.594;2022-12-24T03:27:59;34.40;;;5.70;;
22470;SDS011;11402;51.374;6.594;2022-12-24T03:30:27;35.15;;;5.43;;
22470;SDS011;11402;51.374;6.594;2022-12-24T03:32:53;36.33;;;5.43;;
22470;SDS011;11402;51.374;6.594;2022-12-24T03:35:19;31.60;;;5.28;;
22470;SDS011;11402;51.374;6.594;2022-12-24T03:37:44;30.25;;;5.05;;
22470;SDS011;11402;51.374;6.594;2022-12-24T03:40:10;33.70;;;6.05;;
22470;SDS011;11402;51.374;6.594;2022-12-24T03:42:36;34.97;;;5.25;;
22470;SDS011;11402;51.374;6.594;2022-12-24T03:45:02;36.55;;;5.55;;
22470;SDS011;11402;51.374;6.594;2022-12-24T03:47:28;33.83;;;5.00;;
22470;SDS011;11402;51.374;6.594;2022-12-24T03:49:54;36.55;;;5.68;;
22470;SDS011;11402;51.374;6.594;2022-12-24T03:52:20;32.53;;;6.00;;
22470;SDS011;11402;51.374;6.594;2022-12-24T03:54:45;25.02;;;4.95;;
22470;SDS011;11402;51.374;6.594;2022-12-24T03:57:11;34.17;;;5.10;;
22470;SDS011;11402;51.374;6.594;2022-12-24T03:59:36;26.63;;;4.47;;
22470;SDS011;11402;51.374;6.594;2022-12-24T04:02:02;28.38;;;4.82;;
22470;SDS011;11402;51.374;6.594;2022-12-24T04:04:28;25.58;;;4.95;;
22470;SDS011;11402;51.374;6.594;2022-12-24T04:06:53;27.58;;;4.57;;
22470;SDS011;11402;51.374;6.594;2022-12-24T04:09:19;23.45;;;4.28;;
22470;SDS011;11402;51.374;6.594;2022-12-24T04:11:44;28.35;;;3.90;;
22470;SDS011;11402;51.374;6.594;2022-12-24T04:14:10;22.08;;;4.10;;
22470;SDS011;11402;51.374;6.594;2022-12-24T04:16:35;23.52;;;4.13;;
22470;SDS011;11402;51.374;6.594;2022-12-24T04:19:01;23.88;;;4.95;;
22470;SDS011;11402;51.374;6.594;2022-12-24T04:21:26;20.67;;;4.07;;
22470;SDS011;11402;51.374;6.594;2022-12-24T04:23:52;21.85;;;4.63;;
22470;SDS011;11402;51.374;6.594;2022-12-24T04:26:18;20.70;;;3.80;;
22470;SDS011;11402;51.374;6.594;2022-12-24T04:28:43;25.48;;;4.22;;
22470;SDS011;11402;51.374;6.594;2022-12-24T04:31:10;24.40;;;4.50;;
22470;SDS011;11402;51.374;6.594;2022-12-24T04:33:38;19.23;;;4.20;;
22470;SDS011;11402;51.374;6.594;2022-12-24T04:36:04;22.90;;;3.55;;
22470;SDS011;11402;51.374;6.594;2022-12-24T04:38:31;23.50;;;4.13;;
22470;SDS011;11402;51.374;6.594;2022-12-24T04:41:04;22.67;;;4.50;;
22470;SDS011;11402;51.374;6.594;2022-12-24T04:43:38;20.98;;;4.25;;
22470;SDS011;11402;51.374;6.594;2022-12-24T04:46:11;27.63;;;4.60;;
22470;SDS011;11402;51.374;6.594;2022-12-24T04:48:42;19.50;;;3.78;;
22470;SDS011;11402;51.374;6.594;2022-12-24T04:51:09;21.85;;;4.15;;
22470;SDS011;11402;51.374;6.594;2022-12-24T04:53:35;24.63;;;4.55;;
22470;SDS011;11402;51.374;6.594;2022-12-24T04:56:02;23.15;;;4.65;;
22470;SDS011;11402;51.374;6.594;2022-12-24T04:58:28;21.55;;;4.53;;
22470;SDS011;11402;51.374;6.594;2022-12-24T05:00:54;24.70;;;4.15;;
22470;SDS011;11402;51.374;6.594;2022-12-24T05:03:20;21.70;;;4.43;;
22470;SDS011;11402;51.374;6.594;2022-12-24T05:05:45;30.55;;;4.97;;
22470;SDS011;11402;51.374;6.594;2022-12-24T05:08:11;22.80;;;4.40;;
22470;SDS011;11402;51.374;6.594;2022-12-24T05:10:37;19.02;;;4.18;;
22470;SDS011;11402;51.374;6.594;2022-12-24T05:13:03;25.90;;;4.32;;
22470;SDS011;11402;51.374;6.594;2022-12-24T05:15:28;27.08;;;4.32;;
22470;SDS011;11402;51.374;6.594;2022-12-24T05:17:54;27.98;;;4.63;;
22470;SDS011;11402;51.374;6.594;2022-12-24T05:20:19;21.98;;;4.10;;
22470;SDS011;11402;51.374;6.594;2022-12-24T05:22:45;28.20;;;5.05;;
22470;SDS011;11402;51.374;6.594;2022-12-24T05:25:33;29.27;;;5.13;;
22470;SDS011;11402;51.374;6.594;2022-12-24T05:28:20;30.42;;;6.13;;
22470;SDS011;11402;51.374;6.594;2022-12-24T05:30:45;25.90;;;4.80;;
22470;SDS011;11402;51.374;6.594;2022-12-24T05:33:11;32.17;;;5.28;;
22470;SDS011;11402;51.374;6.594;2022-12-24T05:35:36;29.10;;;5.30;;
22470;SDS011;11402;51.374;6.594;2022-12-24T05:38:02;25.33;;;4.40;;
22470;SDS011;11402;51.374;6.594;2022-12-24T05:40:27;20.95;;;4.68;;
22470;SDS011;11402;51.374;6.594;2022-12-24T05:42:53;23.23;;;4.45;;
22470;SDS011;11402;51.374;6.594;2022-12-24T05:45:18;21.40;;;4.40;;
22470;SDS011;11402;51.374;6.594;2022-12-24T05:47:44;26.15;;;4.07;;
22470;SDS011;11402;51.374;6.594;2022-12-24T05:50:10;28.30;;;5.30;;
22470;SDS011;11402;51.374;6.594;2022-12-24T05:52:35;24.63;;;4.57;;
22470;SDS011;11402;51.374;6.594;2022-12-24T05:55:01;25.30;;;4.47;;
22470;SDS011;11402;51.374;6.594;2022-12-24T05:57:27;28.35;;;4.80;;
22470;SDS011;11402;51.374;6.594;2022-12-24T05:59:52;26.63;;;5.03;;
22470;SDS011;11402;51.374;6.594;2022-12-24T06:02:18;25.88;;;5.10;;
22470;SDS011;11402;51.374;6.594;2022-12-24T06:04:43;24.75;;;5.53;;
22470;SDS011;11402;51.374;6.594;2022-12-24T06:07:09;28.80;;;4.80;;
22470;SDS011;11402;51.374;6.594;2022-12-24T06:09:34;25.50;;;4.70;;
22470;SDS011;11402;51.374;6.594;2022-12-24T06:12:00;30.70;;;5.88;;
22470;SDS011;11402;51.374;6.594;2022-12-24T06:14:25;27.25;;;5.85;;
22470;SDS011;11402;51.374;6.594;2022-12-24T06:16:51;23.27;;;4.50;;
22470;SDS011;11402;51.374;6.594;2022-12-24T06:19:16;25.38;;;5.00;;
22470;SDS011;11402;51.374;6.594;2022-12-24T06:21:42;23.73;;;4.40;;
22470;SDS011;11402;51.374;6.594;2022-12-24T06:24:08;25.35;;;4.90;;
22470;SDS011;11402;51.374;6.594;2022-12-24T06:26:33;31.35;;;5.72;;
22470;SDS011;11402;51.374;6.594;2022-12-24T06:28:59;23.35;;;5.55;;
22470;SDS011;11402;51.374;6.594;2022-12-24T06:31:24;29.15;;;5.22;;
22470;SDS011;11402;51.374;6.594;2022-12-24T06:33:50;23.67;;;4.78;;
22470;SDS011;11402;51.374;6.594;2022-12-24T06:36:18;28.40;;;5.05;;
22470;SDS011;11402;51.374;6.594;2022-12-24T06:38:46;22.95;;;4.80;;
22470;SDS011;11402;51.374;6.594;2022-12-24T06:41:12;20.08;;;4.55;;
22470;SDS011;11402;51.374;6.594;2022-12-24T06:43:38;27.30;;;5.13;;
22470;SDS011;11402;51.374;6.594;2022-12-24T06:46:08;25.83;;;5.50;;
22470;SDS011;11402;51.374;6.594;2022-12-24T06:48:33;29.88;;;5.30;;
22470;SDS011;11402;51.374;6.594;2022-12-24T06:51:00;22.50;;;5.10;;
22470;SDS011;11402;51.374;6.594;2022-12-24T06:53:27;25.52;;;5.95;;
22470;SDS011;11402;51.374;6.594;2022-12-24T06:55:59;28.13;;;5.85;;
22470;SDS011;11402;51.374;6.594;2022-12-24T06:58:32;28.42;;;5.10;;
22470;SDS011;11402;51.374;6.594;2022-12-24T07:01:02;23.83;;;4.72;;
22470;SDS011;11402;51.374;6.594;2022-12-24T07:03:30;32.58;;;5.70;;
22470;SDS011;11402;51.374;6.594;2022-12-24T07:05:56;33.35;;;5.63;;
22470;SDS011;11402;51.374;6.594;2022-12-24T07:08:21;26.88;;;5.28;;
22470;SDS011;11402;51.374;6.594;2022-12-24T07:10:47;32.75;;;6.10;;
22470;SDS011;11402;51.374;6.594;2022-12-24T07:13:14;38.80;;;5.75;;
22470;SDS011;11402;51.374;6.594;2022-12-24T07:15:40;26.48;;;5.10;;
22470;SDS011;11402;51.374;6.594;2022-12-24T07:18:05;31.50;;;5.75;;
22470;SDS011;11402;51.374;6.594;2022-12-24T07:20:31;31.10;;;5.85;;
22470;SDS011;11402;51.374;6.594;2022-12-24T07:22:57;29.92;;;5.90;;
22470;SDS011;11402;51.374;6.594;2022-12-24T07:25:22;40.20;;;6.28;;
22470;SDS011;11402;51.374;6.594;2022-12-24T07:27:48;31.25;;;6.00;;
22470;SDS011;11402;51.374;6.594;2022-12-24T07:30:14;33.13;;;6.25;;
22470;SDS011;11402;51.374;6.594;2022-12-24T07:32:39;30.38;;;5.95;;
22470;SDS011;11402;51.374;6.594;2022-12-24T07:35:05;35.25;;;5.70;;
22470;SDS011;11402;51.374;6.594;2022-12-24T07:37:31;31.58;;;5.43;;
22470;SDS011;11402;51.374;6.594;2022-12-24T07:39:57;30.50;;;5.97;;
22470;SDS011;11402;51.374;6.594;2022-12-24T07:42:22;37.92;;;6.20;;
22470;SDS011;11402;51.374;6.594;2022-12-24T07:44:49;33.55;;;6.38;;
22470;SDS011;11402;51.374;6.594;2022-12-24T07:47:14;37.63;;;5.80;;
22470;SDS011;11402;51.374;6.594;2022-12-24T07:49:40;34.22;;;6.30;;
22470;SDS011;11402;51.374;6.594;2022-12-24T07:52:06;37.00;;;5.97;;
22470;SDS011;11402;51.374;6.594;2022-12-24T07:54:31;32.50;;;5.85;;
22470;SDS011;11402;51.374;6.594;2022-12-24T07:56:57;34.95;;;6.03;;
22470;SDS011;11402;51.374;6.594;2022-12-24T07:59:23;32.45;;;5.72;;
22470;SDS011;11402;51.374;6.594;2022-12-24T08:01:48;35.47;;;5.53;;
22470;SDS011;11402;51.374;6.594;2022-12-24T08:04:14;34.33;;;6.28;;
22470;SDS011;11402;51.374;6.594;2022-12-24T08:06:39;32.67;;;5.40;;
22470;SDS011;11402;51.374;6.594;2022-12-24T08:09:05;31.33;;;5.88;;
22470;SDS011;11402;51.374;6.594;2022-12-24T08:11:31;32.47;;;6.10;;
22470;SDS011;11402;51.374;6.594;2022-12-24T08:13:56;37.40;;;6.40;;
22470;SDS011;11402;51.374;6.594;2022-12-24T08:16:22;25.17;;;5.38;;
22470;SDS011;11402;51.374;6.594;2022-12-24T08:18:48;35.05;;;5.32;;
22470;SDS011;11402;51.374;6.594;2022-12-24T08:21:13;40.72;;;6.05;;
22470;SDS011;11402;51.374;6.594;2022-12-24T08:23:39;38.03;;;6.93;;
22470;SDS011;11402;51.374;6.594;2022-12-24T08:26:08;34.83;;;6.53;;
22470;SDS011;11402;51.374;6.594;2022-12-24T08:28:35;34.35;;;6.95;;
22470;SDS011;11402;51.374;6.594;2022-12-24T08:31:00;36.28;;;7.07;;
22470;SDS011;11402;51.374;6.594;2022-12-24T08:33:26;36.20;;;5.90;;
22470;SDS011;11402;51.374;6.594;2022-12-24T08:35:53;37.67;;;6.18;;
22470;SDS011;11402;51.374;6.594;2022-12-24T08:38:19;39.35;;;6.70;;
22470;SDS011;11402;51.374;6.594;2022-12-24T08:40:46;41.63;;;6.20;;
22470;SDS011;11402;51.374;6.594;2022-12-24T08:43:13;30.50;;;5.20;;
22470;SDS011;11402;51.374;6.594;2022-12-24T08:45:40;41.00;;;7.72;;
22470;SDS011;11402;51.374;6.594;2022-12-24T08:48:06;37.25;;;5.80;;
22470;SDS011;11402;51.374;6.594;2022-12-24T08:50:32;41.72;;;6.07;;
22470;SDS011;11402;51.374;6.594;2022-12-24T08:52:58;34.10;;;6.50;;
22470;SDS011;11402;51.374;6.594;2022-12-24T08:55:24;38.00;;;5.75;;
22470;SDS011;11402;51.374;6.594;2022-12-24T08:57:50;37.58;;;6.93;;
22470;SDS011;11402;51.374;6.594;2022-12-24T09:00:15;35.42;;;6.70;;
22470;SDS011;11402;51.374;6.594;2022-12-24T09:02:41;34.90;;;6.15;;
22470;SDS011;11402;51.374;6.594;2022-12-24T09:05:07;28.65;;;6.25;;
22470;SDS011;11402;51.374;6.594;2022-12-24T09:07:33;36.65;;;6.28;;
22470;SDS011;11402;51.374;6.594;2022-12-24T09:09:58;35.13;;;6.25;;
22470;SDS011;11402;51.374;6.594;2022-12-24T09:12:24;29.77;;;5.55;;
22470;SDS011;11402;51.374;6.594;2022-12-24T09:14:50;36.45;;;7.20;;
22470;SDS011;11402;51.374;6.594;2022-12-24T09:17:16;40.63;;;7.15;;
22470;SDS011;11402;51.374;6.594;2022-12-24T09:19:42;29.02;;;5.18;;
22470;SDS011;11402;51.374;6.594;2022-12-24T09:22:07;30.50;;;6.25;;
22470;SDS011;11402;51.374;6.594;2022-12-24T09:24:33;40.83;;;6.45;;
22470;SDS011;11402;51.374;6.594;2022-12-24T09:27:00;28.30;;;5.50;;
22470;SDS011;11402;51.374;6.594;2022-12-24T09:29:26;31.90;;;5.95;;
22470;SDS011;11402;51.374;6.594;2022-12-24T09:31:52;30.65;;;6.35;;
22470;SDS011;11402;51.374;6.594;2022-12-24T09:34:19;39.15;;;6.50;;
22470;SDS011;11402;51.374;6.594;2022-12-24T09:36:44;38.13;;;6.57;;
22470;SDS011;11402;51.374;6.594;2022-12-24T09:39:10;41.38;;;6.53;;
22470;SDS011;11402;51.374;6.594;2022-12-24T09:47:01;31.75;;;6.10;;
22470;SDS011;11402;51.374;6.594;2022-12-24T09:49:36;35.97;;;6.22;;
22470;SDS011;11402;51.374;6.594;2022-12-24T09:52:09;39.97;;;6.60;;
22470;SDS011;11402;51.374;6.594;2022-12-24T09:54:40;37.25;;;5.93;;
22470;SDS011;11402;51.374;6.594;2022-12-24T09:57:21;30.65;;;5.95;;
22470;SDS011;11402;51.374;6.594;2022-12-24T09:59:53;31.88;;;5.93;;
22470;SDS011;11402;51.374;6.594;2022-12-24T10:02:19;36.47;;;7.20;;
22470;SDS011;11402;51.374;6.594;2022-12-24T10:04:46;36.83;;;6.35;;
22470;SDS011;11402;51.374;6.594;2022-12-24T10:13:31;33.53;;;5.95;;
22470;SDS011;11402;51.374;6.594;2022-12-24T10:18:55;41.25;;;7.18;;
22470;SDS011;11402;51.374;6.594;2022-12-24T10:21:38;37.08;;;5.68;;
22470;SDS011;11402;51.374;6.594;2022-12-24T10:24:23;40.35;;;6.95;;
22470;SDS011;11402;51.374;6.594;2022-12-24T10:27:02;32.90;;;6.00;;
22470;SDS011;11402;51.374;6.594;2022-12-24T10:29:36;37.47;;;6.40;;
22470;SDS011;11402;51.374;6.594;2022-12-24T10:32:25;41.78;;;7.05;;
22470;SDS011;11402;51.374;6.594;2022-12-24T10:34:58;46.97;;;6.97;;
22470;SDS011;11402;51.374;6.594;2022-12-24T10:37:43;32.22;;;6.63;;
22470;SDS011;11402;51.374;6.594;2022-12-24T10:40:53;41.22;;;7.40;;
22470;SDS011;11402;51.374;6.594;2022-12-24T10:43:09;39.78;;;6.82;;
22470;SDS011;11402;51.374;6.594;2022-12-24T10:45:43;37.50;;;6.55;;
22470;SDS011;11402;51.374;6.594;2022-12-24T10:48:20;34.25;;;6.18;;
22470;SDS011;11402;51.374;6.594;2022-12-24T10:50:51;42.60;;;7.30;;
22470;SDS011;11402;51.374;6.594;2022-12-24T10:53:25;35.28;;;7.53;;
22470;SDS011;11402;51.374;6.594;2022-12-24T10:56:02;43.88;;;7.47;;
22470;SDS011;11402;51.374;6.594;2022-12-24T10:58:33;42.53;;;7.43;;
22470;SDS011;11402;51.374;6.594;2022-12-24T11:00:59;37.05;;;6.78;;
22470;SDS011;11402;51.374;6.594;2022-12-24T11:03:33;41.55;;;6.55;;
22470;SDS011;11402;51.374;6.594;2022-12-24T11:08:29;37.92;;;6.90;;
22470;SDS011;11402;51.374;6.594;2022-12-24T11:10:57;38.80;;;6.72;;
22470;SDS011;11402;51.374;6.594;2022-12-24T11:13:31;39.72;;;6.60;;
22470;SDS011;11402;51.374;6.594;2022-12-24T11:16:46;44.63;;;7.70;;
22470;SDS011;11402;51.374;6.594;2022-12-24T11:18:49;31.73;;;6.25;;
22470;SDS011;11402;51.374;6.594;2022-12-24T11:21:29;38.13;;;7.00;;
22470;SDS011;11402;51.374;6.594;2022-12-24T11:24:24;35.75;;;7.07;;
22470;SDS011;11402;51.374;6.594;2022-12-24T11:26:52;38.38;;;7.03;;
22470;SDS011;11402;51.374;6.594;2022-12-24T11:29:21;32.83;;;6.00;;
22470;SDS011;11402;51.374;6.594;2022-12-24T11:31:49;45.08;;;7.20;;
22470;SDS011;11402;51.374;6.594;2022-12-24T11:34:30;39.83;;;7.15;;
22470;SDS011;11402;51.374;6.594;2022-12-24T11:37:09;39.08;;;6.20;;
22470;SDS011;11402;51.374;6.594;2022-12-24T11:39:45;35.35;;;6.10;;
22470;SDS011;11402;51.374;6.594;2022-12-24T11:45:02;28.45;;;5.88;;
22470;SDS011;11402;51.374;6.594;2022-12-24T11:47:41;36.20;;;6.43;;
22470;SDS011;11402;51.374;6.594;2022-12-24T11:52:54;30.98;;;6.90;;
22470;SDS011;11402;51.374;6.594;2022-12-24T11:55:39;42.17;;;6.78;;
22470;SDS011;11402;51.374;6.594;2022-12-24T12:01:15;37.22;;;6.57;;
22470;SDS011;11402;51.374;6.594;2022-12-24T12:03:49;36.28;;;5.85;;
22470;SDS011;11402;51.374;6.594;2022-12-24T12:06:31;32.95;;;6.63;;
22470;SDS011;11402;51.374;6.594;2022-12-24T12:09:02;32.53;;;6.50;;
22470;SDS011;11402;51.374;6.594;2022-12-24T12:11:31;38.17;;;6.68;;
22470;SDS011;11402;51.374;6.594;2022-12-24T12:13:59;28.25;;;6.50;;
22470;SDS011;11402;51.374;6.594;2022-12-24T12:19:45;33.58;;;6.20;;
22470;SDS011;11402;51.374;6.594;2022-12-24T12:22:22;32.17;;;5.65;;
22470;SDS011;11402;51.374;6.594;2022-12-24T12:24:54;36.03;;;6.10;;
22470;SDS011;11402;51.374;6.594;2022-12-24T12:30:22;24.40;;;6.05;;
22470;SDS011;11402;51.374;6.594;2022-12-24T12:33:16;27.48;;;6.28;;
22470;SDS011;11402;51.374;6.594;2022-12-24T12:35:46;30.98;;;5.70;;
22470;SDS011;11402;51.374;6.594;2022-12-24T12:38:16;34.10;;;5.82;;
22470;SDS011;11402;51.374;6.594;2022-12-24T12:43:20;31.80;;;6.55;;
22470;SDS011;11402;51.374;6.594;2022-12-24T12:46:01;32.17;;;5.32;;
22470;SDS011;11402;51.374;6.594;2022-12-24T12:56:53;33.65;;;6.22;;
22470;SDS011;11402;51.374;6.594;2022-12-24T12:59:42;33.78;;;6.00;;
22470;SDS011;11402;51.374;6.594;2022-12-24T13:02:19;27.38;;;7.15;;
22470;SDS011;11402;51.374;6.594;2022-12-24T13:13:28;26.05;;;5.70;;
22470;SDS011;11402;51.374;6.594;2022-12-24T13:16:21;25.88;;;6.10;;
22470;SDS011;11402;51.374;6.594;2022-12-24T13:19:13;28.20;;;5.93;;
22470;SDS011;11402;51.374;6.594;2022-12-24T13:21:49;30.42;;;5.72;;
22470;SDS011;11402;51.374;6.594;2022-12-24T13:24:25;28.50;;;6.18;;
22470;SDS011;11402;51.374;6.594;2022-12-24T13:27:26;28.13;;;6.25;;
22470;SDS011;11402;51.374;6.594;2022-12-24T13:40:00;26.85;;;5.85;;
22470;SDS011;11402;51.374;6.594;2022-12-24T13:42:45;24.35;;;5.88;;
22470;SDS011;11402;51.374;6.594;2022-12-24T13:48:12;29.13;;;5.72;;
22470;SDS011;11402;51.374;6.594;2022-12-24T13:50:57;23.38;;;5.22;;
22470;SDS011;11402;51.374;6.594;2022-12-24T13:55:59;28.80;;;5.07;;
22470;SDS011;11402;51.374;6.594;2022-12-24T13:58:31;28.42;;;5.50;;
22470;SDS011;11402;51.374;6.594;2022-12-24T14:01:03;20.58;;;5.25;;
22470;SDS011;11402;51.374;6.594;2022-12-24T14:03:30;25.50;;;5.80;;
22470;SDS011;11402;51.374;6.594;2022-12-24T14:06:07;23.83;;;5.28;;
22470;SDS011;11402;51.374;6.594;2022-12-24T14:08:43;28.23;;;4.85;;
22470;SDS011;11402;51.374;6.594;2022-12-24T14:11:12;23.20;;;5.13;;
22470;SDS011;11402;51.374;6.594;2022-12-24T14:16:17;26.88;;;5.30;;
22470;SDS011;11402;51.374;6.594;2022-12-24T14:18:49;20.98;;;5.10;;
22470;SDS011;11402;51.374;6.594;2022-12-24T14:21:34;24.30;;;5.50;;
22470;SDS011;11402;51.374;6.594;2022-12-24T14:24:09;23.90;;;4.95;;
22470;SDS011;11402;51.374;6.594;2022-12-24T14:26:46;21.80;;;5.13;;
22470;SDS011;11402;51.374;6.594;2022-12-24T14:29:17;16.65;;;4.72;;
22470;SDS011;11402;51.374;6.594;2022-12-24T14:31:54;21.55;;;5.75;;
22470;SDS011;11402;51.374;6.594;2022-12-24T14:34:22;19.98;;;4.53;;
22470;SDS011;11402;51.374;6.594;2022-12-24T14:36:49;23.08;;;5.63;;
22470;SDS011;11402;51.374;6.594;2022-12-24T14:39:20;25.15;;;6.07;;
22470;SDS011;11402;51.374;6.594;2022-12-24T14:44:47;23.05;;;5.25;;
22470;SDS011;11402;51.374;6.594;2022-12-24T14:52:59;24.10;;;4.93;;
22470;SDS011;11402;51.374;6.594;2022-12-24T14:55:48;25.30;;;5.50;;
22470;SDS011;11402;51.374;6.594;2022-12-24T14:58:29;25.27;;;5.45;;
22470;SDS011;11402;51.374;6.594;2022-12-24T15:01:01;21.70;;;5.75;;
22470;SDS011;11402;51.374;6.594;2022-12-24T15:03:42;20.67;;;5.25;;
22470;SDS011;11402;51.374;6.594;2022-12-24T15:06:08;24.42;;;5.32;;
22470;SDS011;11402;51.374;6.594;2022-12-24T15:08:37;21.33;;;6.00;;
22470;SDS011;11402;51.374;6.594;2022-12-24T15:11:08;26.27;;;5.82;;
22470;SDS011;11402;51.374;6.594;2022-12-24T15:13:39;23.42;;;5.40;;
22470;SDS011;11402;51.374;6.594;2022-12-24T15:16:08;25.70;;;6.10;;
22470;SDS011;11402;51.374;6.594;2022-12-24T15:18:46;22.90;;;5.45;;
22470;SDS011;11402;51.374;6.594;2022-12-24T15:21:35;21.08;;;4.97;;
22470;SDS011;11402;51.374;6.594;2022-12-24T15:24:10;23.27;;;5.55;;
22470;SDS011;11402;51.374;6.594;2022-12-24T15:26:53;17.05;;;4.78;;
22470;SDS011;11402;51.374;6.594;2022-12-24T15:29:21;27.17;;;5.72;;
22470;SDS011;11402;51.374;6.594;2022-12-24T15:31:52;28.02;;;5.85;;
22470;SDS011;11402;51.374;6.594;2022-12-24T15:34:39;22.13;;;5.60;;
22470;SDS011;11402;51.374;6.594;2022-12-24T15:39:52;22.67;;;4.95;;
22470;SDS011;11402;51.374;6.594;2022-12-24T15:42:43;23.77;;;5.45;;
22470;SDS011;11402;51.374;6.594;2022-12-24T15:45:13;24.13;;;5.28;;
22470;SDS011;11402;51.374;6.594;2022-12-24T15:47:47;26.00;;;6.00;;
22470;SDS011;11402;51.374;6.594;2022-12-24T15:52:54;22.10;;;5.47;;
22470;SDS011;11402;51.374;6.594;2022-12-24T15:55:32;28.88;;;6.40;;
22470;SDS011;11402;51.374;6.594;2022-12-24T15:58:12;25.70;;;6.43;;
22470;SDS011;11402;51.374;6.594;2022-12-24T16:01:04;25.25;;;6.82;;
22470;SDS011;11402;51.374;6.594;2022-12-24T16:03:32;20.63;;;6.35;;
22470;SDS011;11402;51.374;6.594;2022-12-24T16:06:00;23.00;;;8.30;;
22470;SDS011;11402;51.374;6.594;2022-12-24T16:08:33;24.25;;;10.60;;
22470;SDS011;11402;51.374;6.594;2022-12-24T16:13:59;28.65;;;9.48;;
22470;SDS011;11402;51.374;6.594;2022-12-24T16:16:57;21.88;;;7.30;;
22470;SDS011;11402;51.374;6.594;2022-12-24T16:19:21;27.58;;;7.05;;
22470;SDS011;11402;51.374;6.594;2022-12-24T16:21:52;29.70;;;7.45;;
22470;SDS011;11402;51.374;6.594;2022-12-24T16:24:23;23.60;;;6.38;;
22470;SDS011;11402;51.374;6.594;2022-12-24T16:26:52;32.13;;;7.05;;
22470;SDS011;11402;51.374;6.594;2022-12-24T16:29:18;25.55;;;6.43;;
22470;SDS011;11402;51.374;6.594;2022-12-24T16:31:57;25.02;;;6.40;;
22470;SDS011;11402;51.374;6.594;2022-12-24T16:34:27;25.35;;;5.82;;